sensor_id;sensor_type;location;lat;lon;timestamp;P1;durP1;ratioP1;P2;durP2;ratioP2
57233;SDS011;43090;52.604;13.318;2023-12-04T00:02:01;44.08;;;13.90;;
57233;SDS011;43090;52.604;13.318;2023-12-04T00:04:28;34.53;;;14.05;;
57233;SDS011;43090;52.604;13.318;2023-12-04T00:06:55;41.47;;;14.82;;
57233;SDS011;43090;52.604;13.318;2023-12-04T00:09:22;40.47;;;13.60;;
57233;SDS011;43090;52.604;13.318;2023-12-04T00:11:51;33.83;;;13.70;;
57233;SDS011;43090;52.604;13.318;2023-12-04T00:14:20;37.60;;;14.07;;
57233;SDS011;43090;52.604;13.318;2023-12-04T00:16:47;41.00;;;15.18;;
57233;SDS011;43090;52.604;13.318;2023-12-04T00:19:13;39.25;;;13.60;;
57233;SDS011;43090;52.604;13.318;2023-12-04T00:21:40;44.20;;;15.27;;
57233;SDS011;43090;52.604;13.318;2023-12-04T00:24:07;42.85;;;15.77;;
57233;SDS011;43090;52.604;13.318;2023-12-04T00:26:33;39.97;;;15.57;;
57233;SDS011;43090;52.604;13.318;2023-12-04T00:29:00;38.25;;;15.02;;
57233;SDS011;43090;52.604;13.318;2023-12-04T00:31:27;32.50;;;13.68;;
57233;SDS011;43090;52.604;13.318;2023-12-04T00:33:54;36.83;;;14.00;;
57233;SDS011;43090;52.604;13.318;2023-12-04T00:36:21;42.88;;;15.45;;
57233;SDS011;43090;52.604;13.318;2023-12-04T00:38:48;40.35;;;17.10;;
57233;SDS011;43090;52.604;13.318;2023-12-04T00:41:14;45.17;;;15.85;;
57233;SDS011;43090;52.604;13.318;2023-12-04T00:43:41;41.17;;;14.70;;
57233;SDS011;43090;52.604;13.318;2023-12-04T00:46:08;41.05;;;14.88;;
57233;SDS011;43090;52.604;13.318;2023-12-04T00:48:35;37.00;;;14.55;;
57233;SDS011;43090;52.604;13.318;2023-12-04T00:51:02;39.65;;;15.38;;
57233;SDS011;43090;52.604;13.318;2023-12-04T00:53:28;40.72;;;15.73;;
57233;SDS011;43090;52.604;13.318;2023-12-04T00:55:55;38.33;;;15.27;;
57233;SDS011;43090;52.604;13.318;2023-12-04T00:58:21;43.83;;;16.70;;
57233;SDS011;43090;52.604;13.318;2023-12-04T01:00:48;38.28;;;14.57;;
57233;SDS011;43090;52.604;13.318;2023-12-04T01:03:16;38.92;;;14.52;;
57233;SDS011;43090;52.604;13.318;2023-12-04T01:05:46;36.28;;;15.05;;
57233;SDS011;43090;52.604;13.318;2023-12-04T01:08:13;41.47;;;15.50;;
57233;SDS011;43090;52.604;13.318;2023-12-04T01:10:39;40.25;;;14.20;;
57233;SDS011;43090;52.604;13.318;2023-12-04T01:13:06;39.92;;;15.05;;
57233;SDS011;43090;52.604;13.318;2023-12-04T01:15:33;41.25;;;14.38;;
57233;SDS011;43090;52.604;13.318;2023-12-04T01:18:00;41.50;;;14.60;;
57233;SDS011;43090;52.604;13.318;2023-12-04T01:20:29;40.88;;;14.15;;
57233;SDS011;43090;52.604;13.318;2023-12-04T01:22:56;38.45;;;15.75;;
57233;SDS011;43090;52.604;13.318;2023-12-04T01:25:23;43.55;;;16.35;;
57233;SDS011;43090;52.604;13.318;2023-12-04T01:27:49;40.55;;;15.85;;
57233;SDS011;43090;52.604;13.318;2023-12-04T01:30:16;45.55;;;16.23;;
57233;SDS011;43090;52.604;13.318;2023-12-04T01:32:43;42.10;;;15.05;;
57233;SDS011;43090;52.604;13.318;2023-12-04T01:35:09;42.65;;;14.38;;
57233;SDS011;43090;52.604;13.318;2023-12-04T01:37:37;44.75;;;15.13;;
57233;SDS011;43090;52.604;13.318;2023-12-04T01:40:04;35.92;;;15.20;;
57233;SDS011;43090;52.604;13.318;2023-12-04T01:42:33;39.15;;;14.57;;
57233;SDS011;43090;52.604;13.318;2023-12-04T01:45:00;44.53;;;16.83;;
57233;SDS011;43090;52.604;13.318;2023-12-04T01:47:27;45.63;;;16.55;;
57233;SDS011;43090;52.604;13.318;2023-12-04T01:49:54;39.25;;;14.43;;
57233;SDS011;43090;52.604;13.318;2023-12-04T01:52:20;49.03;;;16.98;;
57233;SDS011;43090;52.604;13.318;2023-12-04T01:54:47;46.22;;;16.60;;
57233;SDS011;43090;52.604;13.318;2023-12-04T01:57:14;45.45;;;15.77;;
57233;SDS011;43090;52.604;13.318;2023-12-04T01:59:40;48.70;;;16.85;;
57233;SDS011;43090;52.604;13.318;2023-12-04T02:02:07;49.47;;;16.73;;
57233;SDS011;43090;52.604;13.318;2023-12-04T02:04:34;41.17;;;16.30;;
57233;SDS011;43090;52.604;13.318;2023-12-04T02:07:01;45.53;;;15.80;;
57233;SDS011;43090;52.604;13.318;2023-12-04T02:09:28;43.53;;;16.00;;
57233;SDS011;43090;52.604;13.318;2023-12-04T02:11:56;48.45;;;16.67;;
57233;SDS011;43090;52.604;13.318;2023-12-04T02:14:24;49.25;;;16.13;;
57233;SDS011;43090;52.604;13.318;2023-12-04T02:16:51;46.60;;;17.25;;
57233;SDS011;43090;52.604;13.318;2023-12-04T02:19:20;49.55;;;18.17;;
57233;SDS011;43090;52.604;13.318;2023-12-04T02:21:47;43.92;;;15.70;;
57233;SDS011;43090;52.604;13.318;2023-12-04T02:24:14;43.25;;;16.27;;
57233;SDS011;43090;52.604;13.318;2023-12-04T02:26:44;50.25;;;16.00;;
57233;SDS011;43090;52.604;13.318;2023-12-04T02:29:21;34.90;;;13.32;;
57233;SDS011;43090;52.604;13.318;2023-12-04T02:46:25;52.40;;;17.05;;
57233;SDS011;43090;52.604;13.318;2023-12-04T02:48:52;46.28;;;16.50;;
57233;SDS011;43090;52.604;13.318;2023-12-04T02:51:19;47.42;;;17.73;;
57233;SDS011;43090;52.604;13.318;2023-12-04T02:53:49;54.28;;;17.08;;
57233;SDS011;43090;52.604;13.318;2023-12-04T02:56:15;48.08;;;15.93;;
57233;SDS011;43090;52.604;13.318;2023-12-04T02:58:42;47.90;;;18.10;;
57233;SDS011;43090;52.604;13.318;2023-12-04T03:01:08;59.80;;;19.63;;
57233;SDS011;43090;52.604;13.318;2023-12-04T03:03:35;46.05;;;17.90;;
57233;SDS011;43090;52.604;13.318;2023-12-04T03:06:02;47.42;;;17.38;;
57233;SDS011;43090;52.604;13.318;2023-12-04T03:08:29;42.22;;;15.93;;
57233;SDS011;43090;52.604;13.318;2023-12-04T03:10:55;53.50;;;18.60;;
57233;SDS011;43090;52.604;13.318;2023-12-04T03:13:22;48.60;;;18.42;;
57233;SDS011;43090;52.604;13.318;2023-12-04T03:15:48;42.78;;;17.15;;
57233;SDS011;43090;52.604;13.318;2023-12-04T03:18:15;45.72;;;16.83;;
57233;SDS011;43090;52.604;13.318;2023-12-04T03:20:42;48.10;;;16.95;;
57233;SDS011;43090;52.604;13.318;2023-12-04T03:23:08;55.33;;;18.80;;
57233;SDS011;43090;52.604;13.318;2023-12-04T03:25:35;50.38;;;17.20;;
57233;SDS011;43090;52.604;13.318;2023-12-04T03:28:02;45.60;;;16.75;;
57233;SDS011;43090;52.604;13.318;2023-12-04T03:30:28;49.53;;;16.27;;
57233;SDS011;43090;52.604;13.318;2023-12-04T03:32:56;49.78;;;17.42;;
57233;SDS011;43090;52.604;13.318;2023-12-04T03:35:22;46.42;;;17.73;;
57233;SDS011;43090;52.604;13.318;2023-12-04T03:37:49;49.13;;;19.45;;
57233;SDS011;43090;52.604;13.318;2023-12-04T03:40:16;57.65;;;18.80;;
57233;SDS011;43090;52.604;13.318;2023-12-04T03:42:43;52.15;;;17.25;;
57233;SDS011;43090;52.604;13.318;2023-12-04T03:45:10;50.67;;;17.40;;
57233;SDS011;43090;52.604;13.318;2023-12-04T03:47:36;47.08;;;17.10;;
57233;SDS011;43090;52.604;13.318;2023-12-04T03:50:03;54.83;;;20.67;;
57233;SDS011;43090;52.604;13.318;2023-12-04T03:52:30;45.22;;;16.80;;
57233;SDS011;43090;52.604;13.318;2023-12-04T03:54:57;50.95;;;19.33;;
57233;SDS011;43090;52.604;13.318;2023-12-04T03:57:23;53.35;;;18.35;;
57233;SDS011;43090;52.604;13.318;2023-12-04T03:59:50;56.28;;;19.48;;
57233;SDS011;43090;52.604;13.318;2023-12-04T04:02:17;55.03;;;19.60;;
57233;SDS011;43090;52.604;13.318;2023-12-04T04:04:43;50.22;;;18.75;;
57233;SDS011;43090;52.604;13.318;2023-12-04T04:07:10;51.15;;;18.63;;
57233;SDS011;43090;52.604;13.318;2023-12-04T04:09:37;55.20;;;18.92;;
57233;SDS011;43090;52.604;13.318;2023-12-04T04:12:03;54.05;;;20.25;;
57233;SDS011;43090;52.604;13.318;2023-12-04T04:14:30;51.78;;;17.90;;
57233;SDS011;43090;52.604;13.318;2023-12-04T04:16:57;52.85;;;18.75;;
57233;SDS011;43090;52.604;13.318;2023-12-04T04:19:24;50.60;;;18.88;;
57233;SDS011;43090;52.604;13.318;2023-12-04T04:21:50;48.88;;;18.40;;
57233;SDS011;43090;52.604;13.318;2023-12-04T04:24:17;54.85;;;18.15;;
57233;SDS011;43090;52.604;13.318;2023-12-04T04:26:44;48.88;;;19.25;;
57233;SDS011;43090;52.604;13.318;2023-12-04T04:29:10;46.50;;;17.30;;
57233;SDS011;43090;52.604;13.318;2023-12-04T04:31:37;51.90;;;18.92;;
57233;SDS011;43090;52.604;13.318;2023-12-04T04:34:04;50.90;;;18.23;;
57233;SDS011;43090;52.604;13.318;2023-12-04T04:36:30;48.45;;;19.05;;
57233;SDS011;43090;52.604;13.318;2023-12-04T04:38:57;50.72;;;19.73;;
57233;SDS011;43090;52.604;13.318;2023-12-04T04:41:23;49.20;;;18.23;;
57233;SDS011;43090;52.604;13.318;2023-12-04T04:43:50;52.67;;;18.58;;
57233;SDS011;43090;52.604;13.318;2023-12-04T04:46:17;47.13;;;17.08;;
57233;SDS011;43090;52.604;13.318;2023-12-04T04:48:43;44.05;;;17.55;;
57233;SDS011;43090;52.604;13.318;2023-12-04T04:51:10;49.03;;;19.20;;
57233;SDS011;43090;52.604;13.318;2023-12-04T04:53:37;57.85;;;19.63;;
57233;SDS011;43090;52.604;13.318;2023-12-04T04:56:04;51.45;;;18.60;;
57233;SDS011;43090;52.604;13.318;2023-12-04T04:58:34;46.53;;;18.02;;
57233;SDS011;43090;52.604;13.318;2023-12-04T05:01:01;53.97;;;19.00;;
57233;SDS011;43090;52.604;13.318;2023-12-04T05:03:27;50.35;;;18.13;;
57233;SDS011;43090;52.604;13.318;2023-12-04T05:05:54;48.10;;;18.52;;
57233;SDS011;43090;52.604;13.318;2023-12-04T05:08:21;50.00;;;18.80;;
57233;SDS011;43090;52.604;13.318;2023-12-04T05:10:47;52.47;;;18.83;;
57233;SDS011;43090;52.604;13.318;2023-12-04T05:13:14;48.50;;;18.10;;
57233;SDS011;43090;52.604;13.318;2023-12-04T05:15:41;48.30;;;17.85;;
57233;SDS011;43090;52.604;13.318;2023-12-04T05:18:07;43.17;;;17.55;;
57233;SDS011;43090;52.604;13.318;2023-12-04T05:20:34;44.25;;;17.13;;
57233;SDS011;43090;52.604;13.318;2023-12-04T05:23:01;49.80;;;16.73;;
57233;SDS011;43090;52.604;13.318;2023-12-04T05:25:27;57.70;;;20.02;;
57233;SDS011;43090;52.604;13.318;2023-12-04T05:28:03;48.78;;;17.20;;
57233;SDS011;43090;52.604;13.318;2023-12-04T05:30:30;47.60;;;17.25;;
57233;SDS011;43090;52.604;13.318;2023-12-04T05:32:57;45.97;;;17.73;;
57233;SDS011;43090;52.604;13.318;2023-12-04T05:35:24;51.28;;;18.77;;
57233;SDS011;43090;52.604;13.318;2023-12-04T05:37:50;50.47;;;18.08;;
57233;SDS011;43090;52.604;13.318;2023-12-04T05:40:17;52.10;;;19.80;;
57233;SDS011;43090;52.604;13.318;2023-12-04T05:42:43;42.83;;;16.77;;
57233;SDS011;43090;52.604;13.318;2023-12-04T05:45:10;44.30;;;18.75;;
57233;SDS011;43090;52.604;13.318;2023-12-04T05:47:37;46.88;;;17.40;;
57233;SDS011;43090;52.604;13.318;2023-12-04T05:50:04;45.17;;;18.23;;
57233;SDS011;43090;52.604;13.318;2023-12-04T05:52:31;45.85;;;17.55;;
57233;SDS011;43090;52.604;13.318;2023-12-04T05:54:57;47.08;;;18.77;;
57233;SDS011;43090;52.604;13.318;2023-12-04T05:57:24;48.05;;;18.55;;
57233;SDS011;43090;52.604;13.318;2023-12-04T05:59:51;47.17;;;16.63;;
57233;SDS011;43090;52.604;13.318;2023-12-04T06:02:17;46.40;;;17.35;;
57233;SDS011;43090;52.604;13.318;2023-12-04T06:04:44;48.08;;;17.88;;
57233;SDS011;43090;52.604;13.318;2023-12-04T06:07:10;45.88;;;17.98;;
57233;SDS011;43090;52.604;13.318;2023-12-04T06:09:37;42.33;;;16.48;;
57233;SDS011;43090;52.604;13.318;2023-12-04T06:12:04;48.05;;;17.17;;
57233;SDS011;43090;52.604;13.318;2023-12-04T06:14:34;45.28;;;17.10;;
57233;SDS011;43090;52.604;13.318;2023-12-04T06:17:01;47.10;;;18.75;;
57233;SDS011;43090;52.604;13.318;2023-12-04T06:19:28;43.08;;;15.88;;
57233;SDS011;43090;52.604;13.318;2023-12-04T06:21:56;43.25;;;16.98;;
57233;SDS011;43090;52.604;13.318;2023-12-04T06:24:23;52.60;;;17.92;;
57233;SDS011;43090;52.604;13.318;2023-12-04T06:26:50;48.08;;;17.27;;
57233;SDS011;43090;52.604;13.318;2023-12-04T06:29:18;46.03;;;17.73;;
57233;SDS011;43090;52.604;13.318;2023-12-04T06:31:46;46.10;;;17.83;;
57233;SDS011;43090;52.604;13.318;2023-12-04T06:34:13;45.10;;;16.20;;
57233;SDS011;43090;52.604;13.318;2023-12-04T06:36:40;51.65;;;18.80;;
57233;SDS011;43090;52.604;13.318;2023-12-04T06:39:09;45.78;;;17.10;;
57233;SDS011;43090;52.604;13.318;2023-12-04T06:41:41;43.50;;;17.25;;
57233;SDS011;43090;52.604;13.318;2023-12-04T06:44:10;57.13;;;19.20;;
57233;SDS011;43090;52.604;13.318;2023-12-04T06:46:37;47.58;;;16.88;;
57233;SDS011;43090;52.604;13.318;2023-12-04T06:49:05;43.40;;;17.33;;
57233;SDS011;43090;52.604;13.318;2023-12-04T06:51:33;47.22;;;17.67;;
57233;SDS011;43090;52.604;13.318;2023-12-04T06:54:02;48.05;;;16.27;;
57233;SDS011;43090;52.604;13.318;2023-12-04T06:56:29;43.85;;;16.75;;
57233;SDS011;43090;52.604;13.318;2023-12-04T06:58:55;51.40;;;17.63;;
57233;SDS011;43090;52.604;13.318;2023-12-04T07:01:39;45.08;;;16.98;;
57233;SDS011;43090;52.604;13.318;2023-12-04T07:18:17;42.42;;;16.13;;
57233;SDS011;43090;52.604;13.318;2023-12-04T07:40:11;45.90;;;17.95;;
57233;SDS011;43090;52.604;13.318;2023-12-04T07:47:32;44.22;;;17.20;;
57233;SDS011;43090;52.604;13.318;2023-12-04T08:17:48;47.75;;;18.02;;
57233;SDS011;43090;52.604;13.318;2023-12-04T08:20:54;48.17;;;18.88;;
57233;SDS011;43090;52.604;13.318;2023-12-04T08:23:21;46.70;;;19.33;;
57233;SDS011;43090;52.604;13.318;2023-12-04T08:25:48;49.53;;;19.55;;
57233;SDS011;43090;52.604;13.318;2023-12-04T08:28:17;56.05;;;17.85;;
57233;SDS011;43090;52.604;13.318;2023-12-04T08:30:44;52.65;;;19.80;;
57233;SDS011;43090;52.604;13.318;2023-12-04T08:33:11;53.85;;;20.88;;
57233;SDS011;43090;52.604;13.318;2023-12-04T08:35:38;48.60;;;19.13;;
57233;SDS011;43090;52.604;13.318;2023-12-04T08:38:08;51.30;;;19.67;;
57233;SDS011;43090;52.604;13.318;2023-12-04T08:40:48;50.85;;;19.63;;
57233;SDS011;43090;52.604;13.318;2023-12-04T08:43:15;41.72;;;17.42;;
57233;SDS011;43090;52.604;13.318;2023-12-04T08:45:56;43.13;;;17.73;;
57233;SDS011;43090;52.604;13.318;2023-12-04T08:48:25;46.40;;;18.70;;
57233;SDS011;43090;52.604;13.318;2023-12-04T08:50:54;50.80;;;18.92;;
57233;SDS011;43090;52.604;13.318;2023-12-04T08:53:23;44.15;;;17.05;;
57233;SDS011;43090;52.604;13.318;2023-12-04T08:55:51;43.83;;;16.27;;
57233;SDS011;43090;52.604;13.318;2023-12-04T08:58:19;48.67;;;19.38;;
57233;SDS011;43090;52.604;13.318;2023-12-04T09:00:46;41.78;;;17.05;;
57233;SDS011;43090;52.604;13.318;2023-12-04T09:03:12;49.15;;;17.98;;
57233;SDS011;43090;52.604;13.318;2023-12-04T09:05:51;49.00;;;18.95;;
57233;SDS011;43090;52.604;13.318;2023-12-04T09:08:26;39.63;;;16.65;;
57233;SDS011;43090;52.604;13.318;2023-12-04T09:11:09;43.28;;;16.73;;
57233;SDS011;43090;52.604;13.318;2023-12-04T09:13:49;42.67;;;16.38;;
57233;SDS011;43090;52.604;13.318;2023-12-04T09:16:26;40.72;;;17.42;;
57233;SDS011;43090;52.604;13.318;2023-12-04T09:18:52;45.83;;;17.70;;
57233;SDS011;43090;52.604;13.318;2023-12-04T09:21:22;41.28;;;17.13;;
57233;SDS011;43090;52.604;13.318;2023-12-04T09:23:49;39.63;;;16.17;;
57233;SDS011;43090;52.604;13.318;2023-12-04T09:26:16;48.55;;;19.00;;
57233;SDS011;43090;52.604;13.318;2023-12-04T09:28:51;50.90;;;17.20;;
57233;SDS011;43090;52.604;13.318;2023-12-04T09:31:21;38.65;;;16.48;;
57233;SDS011;43090;52.604;13.318;2023-12-04T09:33:48;43.53;;;18.17;;
57233;SDS011;43090;52.604;13.318;2023-12-04T09:36:15;38.28;;;16.42;;
57233;SDS011;43090;52.604;13.318;2023-12-04T09:38:44;44.63;;;17.38;;
57233;SDS011;43090;52.604;13.318;2023-12-04T09:41:30;41.30;;;16.13;;
57233;SDS011;43090;52.604;13.318;2023-12-04T09:43:57;38.78;;;16.52;;
57233;SDS011;43090;52.604;13.318;2023-12-04T09:46:24;40.20;;;16.20;;
57233;SDS011;43090;52.604;13.318;2023-12-04T09:48:51;36.67;;;15.68;;
57233;SDS011;43090;52.604;13.318;2023-12-04T09:51:24;41.33;;;16.25;;
57233;SDS011;43090;52.604;13.318;2023-12-04T09:53:54;36.90;;;15.65;;
57233;SDS011;43090;52.604;13.318;2023-12-04T09:56:21;40.95;;;15.45;;
57233;SDS011;43090;52.604;13.318;2023-12-04T09:58:56;36.53;;;15.15;;
57233;SDS011;43090;52.604;13.318;2023-12-04T10:01:28;40.78;;;16.80;;
57233;SDS011;43090;52.604;13.318;2023-12-04T10:04:11;32.47;;;14.52;;
57233;SDS011;43090;52.604;13.318;2023-12-04T10:07:05;34.35;;;14.10;;
57233;SDS011;43090;52.604;13.318;2023-12-04T10:20:22;37.35;;;14.43;;
57233;SDS011;43090;52.604;13.318;2023-12-04T10:22:56;37.50;;;15.25;;
57233;SDS011;43090;52.604;13.318;2023-12-04T10:25:25;36.00;;;14.27;;
57233;SDS011;43090;52.604;13.318;2023-12-04T10:28:07;35.78;;;14.02;;
57233;SDS011;43090;52.604;13.318;2023-12-04T10:30:37;33.92;;;14.85;;
57233;SDS011;43090;52.604;13.318;2023-12-04T10:33:05;36.58;;;14.52;;
57233;SDS011;43090;52.604;13.318;2023-12-04T10:35:33;32.17;;;13.30;;
57233;SDS011;43090;52.604;13.318;2023-12-04T10:38:07;36.97;;;15.13;;
57233;SDS011;43090;52.604;13.318;2023-12-04T10:40:36;35.50;;;13.75;;
57233;SDS011;43090;52.604;13.318;2023-12-04T10:45:37;30.58;;;13.65;;
57233;SDS011;43090;52.604;13.318;2023-12-04T10:48:07;35.00;;;13.45;;
57233;SDS011;43090;52.604;13.318;2023-12-04T10:50:36;31.67;;;13.65;;
57233;SDS011;43090;52.604;13.318;2023-12-04T10:53:04;35.00;;;14.50;;
57233;SDS011;43090;52.604;13.318;2023-12-04T10:55:39;32.83;;;13.52;;
57233;SDS011;43090;52.604;13.318;2023-12-04T10:58:14;28.30;;;12.95;;
57233;SDS011;43090;52.604;13.318;2023-12-04T11:00:45;30.02;;;13.20;;
57233;SDS011;43090;52.604;13.318;2023-12-04T11:03:19;33.42;;;12.70;;
57233;SDS011;43090;52.604;13.318;2023-12-04T11:05:56;27.33;;;12.68;;
57233;SDS011;43090;52.604;13.318;2023-12-04T11:08:32;29.13;;;12.02;;
57233;SDS011;43090;52.604;13.318;2023-12-04T11:11:03;27.38;;;13.40;;
57233;SDS011;43090;52.604;13.318;2023-12-04T11:13:40;28.80;;;12.95;;
57233;SDS011;43090;52.604;13.318;2023-12-04T11:19:31;31.48;;;13.30;;
57233;SDS011;43090;52.604;13.318;2023-12-04T11:22:17;29.77;;;13.00;;
57233;SDS011;43090;52.604;13.318;2023-12-04T11:24:47;29.67;;;13.10;;
57233;SDS011;43090;52.604;13.318;2023-12-04T11:27:17;32.63;;;12.52;;
57233;SDS011;43090;52.604;13.318;2023-12-04T11:29:48;31.48;;;13.07;;
57233;SDS011;43090;52.604;13.318;2023-12-04T11:32:23;29.17;;;13.25;;
57233;SDS011;43090;52.604;13.318;2023-12-04T11:34:59;31.73;;;12.20;;
57233;SDS011;43090;52.604;13.318;2023-12-04T11:37:29;26.48;;;12.63;;
57233;SDS011;43090;52.604;13.318;2023-12-04T11:39:55;33.85;;;14.30;;
57233;SDS011;43090;52.604;13.318;2023-12-04T11:42:24;31.52;;;12.95;;
57233;SDS011;43090;52.604;13.318;2023-12-04T11:44:56;36.13;;;14.15;;
57233;SDS011;43090;52.604;13.318;2023-12-04T11:47:24;33.25;;;14.10;;
57233;SDS011;43090;52.604;13.318;2023-12-04T11:49:54;29.63;;;12.93;;
57233;SDS011;43090;52.604;13.318;2023-12-04T11:52:33;29.17;;;13.60;;
57233;SDS011;43090;52.604;13.318;2023-12-04T11:55:04;28.25;;;12.82;;
57233;SDS011;43090;52.604;13.318;2023-12-04T11:57:37;31.92;;;13.20;;
57233;SDS011;43090;52.604;13.318;2023-12-04T12:00:10;29.88;;;12.48;;
57233;SDS011;43090;52.604;13.318;2023-12-04T12:05:39;28.42;;;12.38;;
57233;SDS011;43090;52.604;13.318;2023-12-04T12:08:10;25.92;;;12.20;;
57233;SDS011;43090;52.604;13.318;2023-12-04T12:10:48;31.85;;;12.52;;
57233;SDS011;43090;52.604;13.318;2023-12-04T12:13:17;30.58;;;12.38;;
57233;SDS011;43090;52.604;13.318;2023-12-04T12:15:46;31.58;;;12.13;;
57233;SDS011;43090;52.604;13.318;2023-12-04T12:18:14;26.00;;;10.80;;
57233;SDS011;43090;52.604;13.318;2023-12-04T12:20:41;29.38;;;12.68;;
57233;SDS011;43090;52.604;13.318;2023-12-04T12:23:08;25.08;;;11.52;;
57233;SDS011;43090;52.604;13.318;2023-12-04T12:25:37;26.17;;;11.45;;
57233;SDS011;43090;52.604;13.318;2023-12-04T12:28:09;29.17;;;12.23;;
57233;SDS011;43090;52.604;13.318;2023-12-04T12:30:36;31.95;;;12.00;;
57233;SDS011;43090;52.604;13.318;2023-12-04T12:33:15;25.20;;;11.50;;
57233;SDS011;43090;52.604;13.318;2023-12-04T12:35:44;16.48;;;7.97;;
57233;SDS011;43090;52.604;13.318;2023-12-04T12:38:25;24.55;;;11.20;;
57233;SDS011;43090;52.604;13.318;2023-12-04T12:40:52;28.77;;;11.93;;
57233;SDS011;43090;52.604;13.318;2023-12-04T12:43:20;28.50;;;11.20;;
57233;SDS011;43090;52.604;13.318;2023-12-04T12:45:49;27.08;;;11.77;;
57233;SDS011;43090;52.604;13.318;2023-12-04T12:48:17;27.15;;;12.27;;
57233;SDS011;43090;52.604;13.318;2023-12-04T12:50:44;28.48;;;11.50;;
57233;SDS011;43090;52.604;13.318;2023-12-04T12:53:17;32.08;;;12.18;;
57233;SDS011;43090;52.604;13.318;2023-12-04T12:55:45;29.15;;;12.57;;
57233;SDS011;43090;52.604;13.318;2023-12-04T12:58:14;30.50;;;11.93;;
57233;SDS011;43090;52.604;13.318;2023-12-04T13:00:50;28.30;;;11.98;;
57233;SDS011;43090;52.604;13.318;2023-12-04T13:03:17;29.15;;;12.38;;
57233;SDS011;43090;52.604;13.318;2023-12-04T13:05:46;30.58;;;12.60;;
57233;SDS011;43090;52.604;13.318;2023-12-04T13:08:13;27.40;;;12.98;;
57233;SDS011;43090;52.604;13.318;2023-12-04T13:10:44;26.75;;;11.75;;
57233;SDS011;43090;52.604;13.318;2023-12-04T13:13:14;25.55;;;11.50;;
57233;SDS011;43090;52.604;13.318;2023-12-04T13:15:41;25.35;;;10.35;;
57233;SDS011;43090;52.604;13.318;2023-12-04T13:18:09;27.77;;;12.02;;
57233;SDS011;43090;52.604;13.318;2023-12-04T13:20:38;32.08;;;13.48;;
57233;SDS011;43090;52.604;13.318;2023-12-04T13:23:17;30.90;;;13.18;;
57233;SDS011;43090;52.604;13.318;2023-12-04T13:25:55;27.05;;;12.38;;
57233;SDS011;43090;52.604;13.318;2023-12-04T13:28:23;29.35;;;11.82;;
57233;SDS011;43090;52.604;13.318;2023-12-04T13:31:01;28.92;;;13.25;;
57233;SDS011;43090;52.604;13.318;2023-12-04T13:33:28;28.90;;;12.07;;
57233;SDS011;43090;52.604;13.318;2023-12-04T13:35:55;31.90;;;13.02;;
57233;SDS011;43090;52.604;13.318;2023-12-04T13:38:28;32.50;;;13.30;;
57233;SDS011;43090;52.604;13.318;2023-12-04T13:41:03;29.67;;;12.35;;
57233;SDS011;43090;52.604;13.318;2023-12-04T13:44:05;28.98;;;12.57;;
57233;SDS011;43090;52.604;13.318;2023-12-04T13:46:33;28.92;;;13.15;;
57233;SDS011;43090;52.604;13.318;2023-12-04T13:48:59;30.02;;;12.13;;
57233;SDS011;43090;52.604;13.318;2023-12-04T13:51:26;31.23;;;13.18;;
57233;SDS011;43090;52.604;13.318;2023-12-04T13:53:53;28.33;;;13.80;;
57233;SDS011;43090;52.604;13.318;2023-12-04T13:56:35;30.73;;;13.23;;
57233;SDS011;43090;52.604;13.318;2023-12-04T14:03:01;26.13;;;11.38;;
57233;SDS011;43090;52.604;13.318;2023-12-04T14:15:45;30.23;;;11.55;;
57233;SDS011;43090;52.604;13.318;2023-12-04T14:18:12;30.80;;;12.05;;
57233;SDS011;43090;52.604;13.318;2023-12-04T14:20:39;27.33;;;12.07;;
57233;SDS011;43090;52.604;13.318;2023-12-04T14:23:05;34.15;;;13.20;;
57233;SDS011;43090;52.604;13.318;2023-12-04T14:25:32;28.77;;;13.10;;
57233;SDS011;43090;52.604;13.318;2023-12-04T14:27:59;33.47;;;13.63;;
57233;SDS011;43090;52.604;13.318;2023-12-04T14:30:27;27.70;;;12.73;;
57233;SDS011;43090;52.604;13.318;2023-12-04T14:32:54;34.25;;;13.43;;
57233;SDS011;43090;52.604;13.318;2023-12-04T14:35:21;29.95;;;13.27;;
57233;SDS011;43090;52.604;13.318;2023-12-04T14:37:48;28.95;;;12.60;;
57233;SDS011;43090;52.604;13.318;2023-12-04T14:40:23;29.50;;;13.30;;
57233;SDS011;43090;52.604;13.318;2023-12-04T14:42:50;33.22;;;13.30;;
57233;SDS011;43090;52.604;13.318;2023-12-04T14:47:47;26.75;;;11.68;;
57233;SDS011;43090;52.604;13.318;2023-12-04T14:50:17;26.08;;;11.88;;
57233;SDS011;43090;52.604;13.318;2023-12-04T14:52:44;35.95;;;13.73;;
57233;SDS011;43090;52.604;13.318;2023-12-04T14:55:16;27.88;;;12.38;;
57233;SDS011;43090;52.604;13.318;2023-12-04T14:57:52;32.88;;;13.63;;
57233;SDS011;43090;52.604;13.318;2023-12-04T15:00:38;43.28;;;15.23;;
57233;SDS011;43090;52.604;13.318;2023-12-04T15:03:27;36.00;;;14.40;;
57233;SDS011;43090;52.604;13.318;2023-12-04T15:06:28;31.63;;;13.85;;
57233;SDS011;43090;52.604;13.318;2023-12-04T15:09:07;28.17;;;12.57;;
57233;SDS011;43090;52.604;13.318;2023-12-04T15:11:53;29.88;;;12.63;;
57233;SDS011;43090;52.604;13.318;2023-12-04T15:14:38;33.47;;;14.27;;
57233;SDS011;43090;52.604;13.318;2023-12-04T15:17:04;35.75;;;13.75;;
57233;SDS011;43090;52.604;13.318;2023-12-04T15:19:45;35.97;;;14.18;;
57233;SDS011;43090;52.604;13.318;2023-12-04T15:22:34;28.38;;;13.45;;
57233;SDS011;43090;52.604;13.318;2023-12-04T15:25:01;35.03;;;13.40;;
57233;SDS011;43090;52.604;13.318;2023-12-04T15:27:29;35.20;;;15.45;;
57233;SDS011;43090;52.604;13.318;2023-12-04T15:29:55;37.40;;;14.35;;
57233;SDS011;43090;52.604;13.318;2023-12-04T15:32:22;41.03;;;17.70;;
57233;SDS011;43090;52.604;13.318;2023-12-04T15:34:49;35.30;;;14.68;;
57233;SDS011;43090;52.604;13.318;2023-12-04T15:37:17;35.30;;;15.45;;
57233;SDS011;43090;52.604;13.318;2023-12-04T15:39:43;33.33;;;14.02;;
57233;SDS011;43090;52.604;13.318;2023-12-04T15:42:11;34.63;;;15.57;;
57233;SDS011;43090;52.604;13.318;2023-12-04T15:44:37;36.25;;;14.90;;
57233;SDS011;43090;52.604;13.318;2023-12-04T15:47:05;38.17;;;15.52;;
57233;SDS011;43090;52.604;13.318;2023-12-04T15:49:34;30.02;;;13.60;;
57233;SDS011;43090;52.604;13.318;2023-12-04T15:52:01;33.22;;;13.20;;
57233;SDS011;43090;52.604;13.318;2023-12-04T15:54:27;39.97;;;15.18;;
57233;SDS011;43090;52.604;13.318;2023-12-04T15:56:59;38.10;;;14.15;;
57233;SDS011;43090;52.604;13.318;2023-12-04T15:59:26;34.75;;;15.40;;
57233;SDS011;43090;52.604;13.318;2023-12-04T16:01:53;34.30;;;15.63;;
57233;SDS011;43090;52.604;13.318;2023-12-04T16:04:20;34.60;;;14.45;;
57233;SDS011;43090;52.604;13.318;2023-12-04T16:06:47;36.42;;;14.45;;
57233;SDS011;43090;52.604;13.318;2023-12-04T16:09:15;32.35;;;13.73;;
57233;SDS011;43090;52.604;13.318;2023-12-04T16:11:42;37.33;;;15.13;;
57233;SDS011;43090;52.604;13.318;2023-12-04T16:14:09;35.67;;;14.80;;
57233;SDS011;43090;52.604;13.318;2023-12-04T16:16:36;37.95;;;16.25;;
57233;SDS011;43090;52.604;13.318;2023-12-04T16:19:09;35.45;;;14.27;;